createdAt,value
2023-01-21T00:00:32.105Z,43.56
2023-01-21T00:03:17.361Z,43.63
2023-01-21T00:06:02.990Z,43.67
2023-01-21T00:08:48.576Z,43.71
2023-01-21T00:11:33.840Z,43.69
2023-01-21T00:14:19.130Z,43.75
2023-01-21T00:17:04.519Z,43.72
2023-01-21T00:28:15.416Z,43.70
2023-01-21T00:31:02.433Z,43.74
2023-01-21T00:33:47.654Z,43.68
2023-01-21T00:36:32.167Z,43.68
2023-01-21T00:39:16.837Z,43.49
2023-01-21T00:42:03.743Z,43.55
2023-01-21T00:44:48.649Z,43.69
2023-01-21T00:55:39.120Z,43.95
2023-01-21T00:58:23.782Z,43.89
2023-01-21T01:01:11.212Z,43.98
2023-01-21T01:03:56.408Z,44.11
2023-01-21T01:06:41.928Z,44.21
2023-01-21T01:09:27.162Z,44.29
2023-01-21T01:12:12.462Z,44.19
2023-01-21T01:14:59.553Z,44.21
2023-01-21T01:17:45.891Z,44.33
2023-01-21T01:20:31.256Z,44.18
2023-01-21T01:23:16.488Z,44.25
2023-01-21T01:26:04.716Z,44.19
2023-01-21T01:28:50.233Z,44.18
2023-01-21T01:31:35.720Z,44.09
2023-01-21T01:34:20.923Z,44.13
2023-01-21T01:37:06.385Z,44.07
2023-01-21T01:39:51.540Z,43.92
2023-01-21T01:42:36.836Z,43.80
2023-01-21T01:45:22.027Z,43.82
2023-01-21T01:48:10.139Z,43.94
2023-01-21T01:51:00.770Z,43.89
2023-01-21T01:53:47.215Z,43.95
2023-01-21T01:56:32.567Z,44.08
2023-01-21T01:59:19.285Z,44.23
2023-01-21T02:02:08.359Z,44.15
2023-01-21T02:04:58.087Z,44.43
2023-01-21T02:07:45.593Z,44.40
2023-01-21T02:10:31.888Z,44.52
2023-01-21T02:13:17.749Z,44.48
2023-01-21T02:16:18.399Z,44.54
2023-01-21T02:19:42.216Z,44.48
2023-01-21T02:22:39.852Z,44.48
2023-01-21T02:26:03.079Z,44.45
2023-01-21T02:37:40.651Z,44.32
2023-01-21T02:40:32.652Z,44.14
2023-01-21T02:43:38.902Z,44.18
2023-01-21T02:46:29.605Z,44.07
2023-01-21T02:49:41.508Z,44.17
2023-01-21T02:52:27.495Z,44.14
2023-01-21T03:03:55.397Z,44.43
2023-01-21T03:06:55.560Z,44.47
2023-01-21T03:09:40.429Z,44.49
2023-01-21T03:12:37.450Z,44.53
2023-01-21T03:15:49.407Z,44.55
2023-01-21T03:18:42.937Z,44.67
2023-01-21T03:26:57.106Z,44.55
2023-01-21T03:29:45.191Z,44.53
2023-01-21T03:32:33.616Z,44.49
2023-01-21T03:35:42.289Z,44.49
2023-01-21T03:38:31.610Z,44.11
2023-01-21T03:41:22.634Z,44.09
2023-01-21T03:44:07.374Z,44.33
2023-01-21T03:53:07.711Z,44.32
2023-01-21T03:55:53.085Z,44.31
2023-01-21T03:58:38.736Z,44.34
2023-01-21T04:01:24.159Z,44.48
2023-01-21T04:04:10.112Z,44.45
2023-01-21T04:06:55.618Z,44.46
2023-01-21T04:09:41.106Z,44.72
2023-01-21T04:12:26.295Z,44.69
2023-01-21T04:15:11.986Z,44.58
2023-01-21T04:17:57.395Z,44.60
2023-01-21T04:20:42.626Z,44.61
2023-01-21T04:23:27.945Z,44.59
2023-01-21T04:26:13.235Z,44.58
2023-01-21T04:28:58.743Z,44.70
2023-01-21T04:31:44.721Z,44.51
2023-01-21T04:34:30.337Z,44.60
2023-01-21T04:37:15.644Z,44.35
2023-01-21T04:40:00.897Z,44.31
2023-01-21T04:42:46.270Z,44.30
2023-01-21T04:45:31.584Z,44.07
2023-01-21T04:48:17.657Z,44.14
2023-01-21T04:51:03.748Z,44.29
2023-01-21T04:53:48.918Z,44.09
2023-01-21T04:56:34.205Z,44.29
2023-01-21T04:59:19.436Z,44.18
2023-01-21T05:02:04.803Z,44.18
2023-01-21T05:04:50.082Z,44.60
2023-01-21T05:07:35.429Z,44.38
2023-01-21T05:10:20.601Z,44.40
2023-01-21T08:17:27.294Z,44.01
2023-01-21T08:20:13.355Z,44.03
2023-01-21T08:23:01.985Z,44.20
2023-01-21T08:25:47.176Z,44.17
2023-01-21T08:28:34.154Z,44.08
2023-01-21T09:31:36.762Z,43.90
2023-01-21T09:39:58.561Z,44.38
2023-01-21T09:42:44.035Z,44.63
2023-01-21T09:45:29.681Z,44.39
2023-01-21T09:48:25.919Z,44.42
2023-01-21T09:51:25.955Z,44.83
2023-01-21T09:54:27.284Z,45.17
2023-01-21T10:03:04.595Z,45.09
2023-01-21T10:05:53.121Z,45.26
2023-01-21T10:09:01.861Z,45.30
2023-01-21T10:11:59.362Z,45.20
2023-01-21T10:15:06.929Z,45.09
2023-01-21T10:18:30.414Z,44.64
2023-01-21T10:21:22.080Z,44.64
2023-01-21T10:24:19.131Z,44.56
2023-01-21T10:27:05.308Z,44.56
2023-01-21T10:29:58.449Z,44.65
2023-01-21T10:32:45.349Z,44.68
2023-01-21T10:35:42.147Z,45.01
2023-01-21T10:38:44.238Z,44.90
2023-01-21T10:41:36.194Z,45.15
2023-01-21T10:44:37.851Z,45.56
2023-01-21T10:47:34.801Z,45.46
2023-01-21T10:50:44.552Z,45.51
2023-01-21T10:53:41.599Z,45.49
2023-01-21T10:56:51.976Z,45.38
2023-01-21T10:59:40.246Z,45.25
2023-01-21T11:02:32.474Z,45.07
2023-01-21T11:05:19.090Z,44.89
2023-01-21T11:08:04.799Z,44.88
2023-01-21T11:10:55.320Z,44.97
2023-01-21T11:13:41.689Z,45.00
2023-01-21T11:16:39.273Z,44.74
2023-01-21T11:19:32.697Z,44.74
2023-01-21T11:22:18.439Z,44.68
2023-01-21T11:25:24.900Z,44.81
2023-01-21T11:28:26.392Z,44.51
2023-01-21T11:31:27.438Z,44.75
2023-01-21T11:34:23.717Z,44.68
2023-01-21T11:37:22.054Z,44.54
2023-01-21T11:40:20.783Z,44.64
2023-01-21T11:43:46.690Z,44.73
2023-01-21T11:46:41.509Z,44.80
2023-01-21T11:49:30.244Z,44.51
2023-01-21T11:52:19.219Z,44.43
2023-01-21T11:57:57.093Z,45.13
2023-01-21T12:00:46.907Z,44.63
2023-01-21T12:03:54.320Z,44.86
2023-01-21T12:06:48.347Z,44.67
2023-01-21T12:09:34.438Z,44.69
2023-01-21T12:12:27.037Z,44.72
2023-01-21T12:15:17.519Z,44.65
2023-01-21T12:18:18.559Z,44.80
2023-01-21T12:21:20.416Z,45.13
2023-01-21T12:24:17.441Z,44.48
2023-01-21T12:27:09.501Z,44.62
2023-01-21T12:30:35.321Z,44.90
2023-01-21T12:33:30.713Z,44.71
2023-01-21T12:36:32.438Z,44.52
2023-01-21T12:39:25.007Z,44.44
2023-01-21T12:42:29.423Z,44.68
2023-01-21T12:45:21.192Z,44.71
2023-01-21T12:48:37.512Z,44.80
2023-01-21T12:51:33.069Z,44.63
2023-01-21T12:54:21.594Z,44.63
2023-01-21T12:57:34.762Z,44.75
2023-01-21T13:00:25.410Z,45.19
2023-01-21T13:03:19.783Z,45.20
2023-01-21T13:06:23.951Z,45.03
2023-01-21T13:09:38.831Z,44.95
2023-01-21T13:12:30.603Z,44.83
2023-01-21T13:15:21.503Z,44.11
2023-01-21T13:18:16.807Z,44.26
2023-01-21T13:21:28.842Z,44.32
2023-01-21T13:24:22.854Z,44.73
2023-01-21T13:27:17.792Z,44.47
2023-01-21T13:30:18.048Z,44.50
2023-01-21T13:33:06.881Z,44.55
2023-01-21T13:36:30.256Z,44.60
2023-01-21T13:40:08.225Z,44.57
2023-01-21T13:43:14.239Z,44.62
2023-01-21T13:46:02.982Z,44.86
2023-01-21T13:49:16.630Z,44.95
2023-01-21T13:52:36.556Z,44.99
2023-01-21T13:55:32.688Z,45.20
2023-01-21T13:58:52.511Z,45.09
2023-01-21T14:01:46.847Z,45.29
2023-01-21T14:04:48.155Z,45.33
2023-01-21T14:07:40.968Z,45.47
2023-01-21T14:10:49.749Z,45.62
2023-01-21T14:14:00.257Z,45.51
2023-01-21T14:16:57.243Z,45.56
2023-01-21T14:20:16.691Z,45.94
2023-01-21T14:23:33.876Z,46.44
2023-01-21T14:26:40.316Z,46.78
2023-01-21T14:29:33.461Z,46.71
2023-01-21T14:32:32.649Z,46.81
2023-01-21T14:35:37.242Z,47.38
2023-01-21T14:39:04.277Z,46.31
2023-01-21T14:42:14.800Z,46.11
2023-01-21T14:45:08.122Z,46.87
2023-01-21T14:47:55.298Z,46.94
2023-01-21T14:50:51.067Z,46.96
2023-01-21T14:59:41.151Z,47.68
2023-01-21T15:02:33.506Z,47.05
2023-01-21T15:05:50.206Z,46.67
2023-01-21T15:08:46.160Z,46.39
2023-01-21T15:11:39.561Z,46.09
2023-01-21T15:14:29.188Z,46.11
2023-01-21T15:17:51.918Z,46.58
2023-01-21T15:21:00.770Z,46.43
2023-01-21T15:23:50.131Z,46.98
2023-01-21T15:26:36.623Z,47.65
2023-01-21T15:29:34.005Z,47.96
2023-01-21T15:32:31.710Z,47.79
2023-01-21T15:35:35.533Z,47.17
2023-01-21T15:38:21.015Z,47.28
2023-01-21T15:41:22.399Z,47.10
2023-01-21T15:44:36.097Z,47.34
2023-01-21T15:47:39.687Z,47.21
2023-01-21T15:50:32.022Z,48.04
2023-01-21T15:53:39.175Z,48.02
2023-01-21T15:56:54.109Z,47.84
2023-01-21T16:00:08.079Z,47.80
2023-01-21T16:03:21.866Z,47.97
2023-01-21T16:06:22.459Z,47.77
2023-01-21T16:09:10.982Z,47.66
2023-01-21T16:12:11.248Z,48.06
2023-01-21T16:15:17.480Z,47.86
2023-01-21T18:27:02.224Z,47.36
2023-01-21T18:29:48.085Z,47.35
2023-01-21T18:32:33.742Z,47.18
2023-01-21T18:35:22.692Z,47.91
2023-01-21T18:38:19.242Z,48.37
2023-01-21T18:41:05.782Z,48.98
2023-01-21T18:43:51.491Z,48.64
2023-01-21T18:46:43.932Z,48.53
2023-01-21T18:49:29.408Z,48.30
2023-01-21T18:52:16.684Z,48.10
2023-01-21T18:55:02.565Z,47.93
2023-01-21T18:57:50.290Z,47.84
2023-01-21T19:00:35.920Z,47.79
2023-01-21T19:03:23.187Z,47.71
2023-01-21T19:06:14.345Z,47.80
2023-01-21T19:08:59.829Z,47.81
2023-01-21T19:11:45.080Z,47.60
2023-01-21T19:14:30.470Z,47.65
2023-01-21T19:17:33.027Z,47.66
2023-01-21T19:20:21.050Z,47.56
2023-01-21T19:23:15.192Z,47.64
2023-01-21T19:26:01.118Z,48.09
2023-01-21T19:28:46.543Z,47.83
2023-01-21T19:31:32.746Z,47.62
2023-01-21T19:34:18.649Z,47.44
2023-01-21T19:37:04.760Z,47.58
2023-01-21T19:39:50.330Z,48.23
2023-01-21T19:42:35.477Z,48.32
2023-01-21T19:45:21.069Z,48.64
2023-01-21T19:48:12.803Z,48.95
2023-01-21T19:50:58.162Z,48.42
2023-01-21T19:53:43.356Z,48.79
2023-01-21T19:56:28.737Z,48.58
2023-01-21T19:59:15.736Z,48.84
2023-01-21T20:02:02.720Z,48.45
2023-01-21T20:04:47.985Z,48.43
2023-01-21T20:07:33.947Z,48.26
2023-01-21T20:10:25.500Z,48.81
2023-01-21T20:13:12.264Z,49.11
2023-01-21T20:16:02.644Z,48.60
2023-01-21T20:18:49.792Z,47.55
2023-01-21T20:21:38.010Z,46.72
2023-01-21T20:24:26.879Z,46.33
2023-01-21T20:27:14.505Z,46.17
2023-01-21T20:30:15.962Z,46.01
2023-01-21T20:33:01.816Z,46.09
2023-01-21T20:35:55.827Z,46.09
2023-01-21T20:38:42.166Z,46.20
2023-01-21T20:41:27.851Z,46.38
2023-01-21T20:44:13.273Z,46.44
2023-01-21T20:47:00.685Z,46.63
2023-01-21T20:49:45.980Z,46.79
2023-01-21T20:52:31.203Z,46.91
2023-01-21T20:55:20.821Z,46.93
2023-01-21T20:58:07.310Z,47.03
2023-01-21T21:00:52.861Z,47.00
2023-01-21T21:03:38.409Z,46.96
2023-01-21T21:06:27.969Z,46.89
2023-01-21T21:09:13.337Z,46.96
2023-01-21T21:11:58.710Z,46.91
2023-01-21T21:14:43.886Z,46.93
2023-01-21T21:17:29.175Z,46.94
2023-01-21T21:20:21.375Z,46.93
2023-01-21T21:23:07.745Z,47.11
2023-01-21T21:25:53.429Z,47.09
2023-01-21T21:28:38.921Z,47.26
2023-01-21T21:31:26.371Z,47.25
2023-01-21T21:34:12.077Z,47.29
2023-01-21T21:36:57.362Z,47.31
2023-01-21T21:39:42.451Z,47.39
2023-01-21T21:42:46.484Z,47.49
2023-01-21T21:45:32.209Z,47.55
2023-01-21T21:48:39.383Z,47.72
2023-01-21T21:51:25.041Z,47.68
2023-01-21T21:54:12.992Z,47.92
2023-01-21T21:56:58.597Z,48.03
2023-01-21T21:59:43.839Z,47.89
2023-01-21T22:02:29.242Z,47.91
2023-01-21T22:05:14.376Z,48.04
2023-01-21T22:07:59.676Z,48.02
2023-01-21T22:10:45.742Z,47.93
2023-01-21T22:13:34.138Z,47.82
2023-01-21T22:16:23.759Z,47.86
2023-01-21T22:19:09.288Z,47.74
2023-01-21T22:21:54.428Z,47.78
2023-01-21T22:24:39.812Z,47.56
2023-01-21T22:27:24.939Z,47.58
2023-01-21T22:30:10.986Z,47.58
2023-01-21T22:32:56.829Z,47.54
2023-01-21T22:35:42.388Z,47.77
2023-01-21T22:38:27.745Z,47.57
2023-01-21T22:41:15.481Z,47.73
2023-01-21T22:44:00.644Z,47.66
2023-01-21T22:46:46.057Z,47.71
2023-01-21T22:49:31.202Z,47.75
2023-01-21T22:52:16.484Z,47.78
2023-01-21T22:55:01.597Z,47.81
2023-01-21T22:57:46.892Z,47.96
2023-01-21T23:00:36.859Z,47.93
2023-01-21T23:03:22.969Z,47.90
2023-01-21T23:06:08.716Z,47.93
2023-01-21T23:08:54.477Z,48.06
2023-01-21T23:11:41.516Z,48.15
2023-01-21T23:14:26.843Z,48.04
2023-01-21T23:17:13.555Z,48.10
2023-01-21T23:19:59.070Z,48.27
2023-01-21T23:22:44.410Z,48.23
2023-01-21T23:25:29.691Z,48.20
2023-01-21T23:28:15.765Z,48.14
2023-01-21T23:31:05.500Z,48.09
2023-01-21T23:33:52.578Z,47.93
2023-01-21T23:36:37.856Z,47.91
2023-01-21T23:39:23.498Z,47.84
2023-01-21T23:42:08.913Z,47.72
2023-01-21T23:44:54.086Z,47.92
2023-01-21T23:47:39.350Z,47.80
2023-01-21T23:50:24.783Z,47.77
2023-01-21T23:53:10.067Z,47.87
2023-01-21T23:56:03.695Z,47.88
2023-01-21T23:58:49.716Z,47.84
